sensor_id;sensor_type;location;lat;lon;timestamp;P1;durP1;ratioP1;P2;durP2;ratioP2
10315;SDS011;5203;48.976;8.306;2023-04-03T00:00:24;2.30;;;2.10;;
10315;SDS011;5203;48.976;8.306;2023-04-03T00:02:50;2.70;;;2.50;;
10315;SDS011;5203;48.976;8.306;2023-04-03T00:05:16;2.40;;;2.20;;
10315;SDS011;5203;48.976;8.306;2023-04-03T00:07:41;2.27;;;2.07;;
10315;SDS011;5203;48.976;8.306;2023-04-03T00:10:07;2.83;;;2.47;;
10315;SDS011;5203;48.976;8.306;2023-04-03T00:12:33;2.67;;;2.47;;
10315;SDS011;5203;48.976;8.306;2023-04-03T00:14:59;2.40;;;2.20;;
10315;SDS011;5203;48.976;8.306;2023-04-03T00:17:25;3.03;;;2.30;;
10315;SDS011;5203;48.976;8.306;2023-04-03T00:19:50;2.87;;;2.50;;
10315;SDS011;5203;48.976;8.306;2023-04-03T00:22:16;2.50;;;2.30;;
10315;SDS011;5203;48.976;8.306;2023-04-03T00:24:42;2.57;;;2.30;;
10315;SDS011;5203;48.976;8.306;2023-04-03T00:27:07;3.10;;;2.50;;
10315;SDS011;5203;48.976;8.306;2023-04-03T00:29:33;2.40;;;2.20;;
10315;SDS011;5203;48.976;8.306;2023-04-03T00:31:58;3.67;;;2.57;;
10315;SDS011;5203;48.976;8.306;2023-04-03T00:34:24;3.43;;;2.53;;
10315;SDS011;5203;48.976;8.306;2023-04-03T00:36:50;2.40;;;2.20;;
10315;SDS011;5203;48.976;8.306;2023-04-03T00:39:16;2.40;;;2.20;;
10315;SDS011;5203;48.976;8.306;2023-04-03T00:41:42;2.13;;;2.03;;
10315;SDS011;5203;48.976;8.306;2023-04-03T00:47:15;2.30;;;2.10;;
10315;SDS011;5203;48.976;8.306;2023-04-03T00:49:42;3.10;;;2.10;;
10315;SDS011;5203;48.976;8.306;2023-04-03T00:52:10;2.97;;;2.30;;
10315;SDS011;5203;48.976;8.306;2023-04-03T00:54:41;2.87;;;2.10;;
10315;SDS011;5203;48.976;8.306;2023-04-03T00:57:08;2.30;;;2.10;;
10315;SDS011;5203;48.976;8.306;2023-04-03T00:59:35;1.97;;;1.77;;
10315;SDS011;5203;48.976;8.306;2023-04-03T01:02:05;2.80;;;2.20;;
10315;SDS011;5203;48.976;8.306;2023-04-03T01:07:02;2.50;;;2.30;;
10315;SDS011;5203;48.976;8.306;2023-04-03T01:09:32;2.60;;;2.17;;
10315;SDS011;5203;48.976;8.306;2023-04-03T01:15:24;2.60;;;2.40;;
10315;SDS011;5203;48.976;8.306;2023-04-03T01:17:54;2.80;;;2.40;;
10315;SDS011;5203;48.976;8.306;2023-04-03T01:23:05;2.97;;;2.40;;
10315;SDS011;5203;48.976;8.306;2023-04-03T01:25:53;2.17;;;2.00;;
10315;SDS011;5203;48.976;8.306;2023-04-03T01:28:23;3.50;;;2.27;;
10315;SDS011;5203;48.976;8.306;2023-04-03T01:33:50;1.97;;;1.87;;
10315;SDS011;5203;48.976;8.306;2023-04-03T01:36:17;2.30;;;2.10;;
10315;SDS011;5203;48.976;8.306;2023-04-03T01:38:49;3.33;;;2.10;;
10315;SDS011;5203;48.976;8.306;2023-04-03T01:41:16;2.10;;;1.90;;
10315;SDS011;5203;48.976;8.306;2023-04-03T01:43:42;3.63;;;1.97;;
10315;SDS011;5203;48.976;8.306;2023-04-03T01:46:08;2.30;;;2.10;;
10315;SDS011;5203;48.976;8.306;2023-04-03T01:48:34;2.50;;;2.27;;
10315;SDS011;5203;48.976;8.306;2023-04-03T01:51:00;3.50;;;2.40;;
10315;SDS011;5203;48.976;8.306;2023-04-03T01:53:26;2.73;;;2.00;;
10315;SDS011;5203;48.976;8.306;2023-04-03T01:55:51;2.60;;;2.30;;
10315;SDS011;5203;48.976;8.306;2023-04-03T01:58:17;2.00;;;1.90;;
10315;SDS011;5203;48.976;8.306;2023-04-03T02:00:43;2.60;;;2.03;;
10315;SDS011;5203;48.976;8.306;2023-04-03T02:03:08;2.57;;;2.20;;
10315;SDS011;5203;48.976;8.306;2023-04-03T02:05:35;2.37;;;2.17;;
10315;SDS011;5203;48.976;8.306;2023-04-03T02:08:01;3.73;;;2.20;;
10315;SDS011;5203;48.976;8.306;2023-04-03T02:10:26;3.00;;;2.50;;
10315;SDS011;5203;48.976;8.306;2023-04-03T02:12:52;3.57;;;2.27;;
10315;SDS011;5203;48.976;8.306;2023-04-03T02:15:18;2.27;;;2.03;;
10315;SDS011;5203;48.976;8.306;2023-04-03T02:17:43;2.63;;;1.93;;
10315;SDS011;5203;48.976;8.306;2023-04-03T02:20:09;3.47;;;2.23;;
10315;SDS011;5203;48.976;8.306;2023-04-03T02:22:35;2.70;;;2.50;;
10315;SDS011;5203;48.976;8.306;2023-04-03T02:25:01;2.53;;;2.33;;
10315;SDS011;5203;48.976;8.306;2023-04-03T02:27:27;3.43;;;2.50;;
10315;SDS011;5203;48.976;8.306;2023-04-03T02:29:52;6.67;;;2.40;;
10315;SDS011;5203;48.976;8.306;2023-04-03T02:32:18;2.40;;;2.20;;
10315;SDS011;5203;48.976;8.306;2023-04-03T02:34:44;2.20;;;2.10;;
10315;SDS011;5203;48.976;8.306;2023-04-03T02:37:10;2.43;;;2.17;;
10315;SDS011;5203;48.976;8.306;2023-04-03T02:39:35;4.80;;;2.40;;
10315;SDS011;5203;48.976;8.306;2023-04-03T02:42:01;2.33;;;2.03;;
10315;SDS011;5203;48.976;8.306;2023-04-03T02:44:27;3.57;;;2.80;;
10315;SDS011;5203;48.976;8.306;2023-04-03T02:46:52;2.63;;;2.33;;
10315;SDS011;5203;48.976;8.306;2023-04-03T02:49:18;2.87;;;2.57;;
10315;SDS011;5203;48.976;8.306;2023-04-03T02:51:43;2.50;;;2.30;;
10315;SDS011;5203;48.976;8.306;2023-04-03T02:54:09;3.17;;;2.40;;
10315;SDS011;5203;48.976;8.306;2023-04-03T02:56:35;2.67;;;2.10;;
10315;SDS011;5203;48.976;8.306;2023-04-03T02:59:00;4.27;;;2.40;;
10315;SDS011;5203;48.976;8.306;2023-04-03T03:01:26;2.80;;;2.47;;
10315;SDS011;5203;48.976;8.306;2023-04-03T03:03:56;2.87;;;2.30;;
10315;SDS011;5203;48.976;8.306;2023-04-03T03:06:22;2.73;;;2.23;;
10315;SDS011;5203;48.976;8.306;2023-04-03T03:08:48;3.40;;;2.40;;
10315;SDS011;5203;48.976;8.306;2023-04-03T03:11:13;3.63;;;2.57;;
10315;SDS011;5203;48.976;8.306;2023-04-03T03:13:39;3.43;;;2.20;;
10315;SDS011;5203;48.976;8.306;2023-04-03T03:16:05;2.77;;;2.57;;
10315;SDS011;5203;48.976;8.306;2023-04-03T03:18:31;2.57;;;2.37;;
10315;SDS011;5203;48.976;8.306;2023-04-03T03:20:58;3.27;;;2.23;;
10315;SDS011;5203;48.976;8.306;2023-04-03T03:23:26;3.13;;;2.60;;
10315;SDS011;5203;48.976;8.306;2023-04-03T03:25:56;2.20;;;2.00;;
10315;SDS011;5203;48.976;8.306;2023-04-03T03:28:23;3.07;;;2.57;;
10315;SDS011;5203;48.976;8.306;2023-04-03T03:30:49;2.63;;;2.27;;
10315;SDS011;5203;48.976;8.306;2023-04-03T03:33:15;2.87;;;2.50;;
10315;SDS011;5203;48.976;8.306;2023-04-03T03:35:42;2.47;;;2.27;;
10315;SDS011;5203;48.976;8.306;2023-04-03T03:38:08;3.17;;;2.20;;
10315;SDS011;5203;48.976;8.306;2023-04-03T03:40:34;3.07;;;2.67;;
10315;SDS011;5203;48.976;8.306;2023-04-03T03:42:59;3.27;;;2.33;;
10315;SDS011;5203;48.976;8.306;2023-04-03T03:45:25;3.63;;;2.20;;
10315;SDS011;5203;48.976;8.306;2023-04-03T03:47:50;2.57;;;2.27;;
10315;SDS011;5203;48.976;8.306;2023-04-03T03:50:16;2.40;;;2.20;;
10315;SDS011;5203;48.976;8.306;2023-04-03T03:52:42;2.50;;;2.30;;
10315;SDS011;5203;48.976;8.306;2023-04-03T03:55:07;2.20;;;1.90;;
10315;SDS011;5203;48.976;8.306;2023-04-03T03:57:33;2.77;;;2.20;;
10315;SDS011;5203;48.976;8.306;2023-04-03T03:59:59;3.00;;;2.70;;
10315;SDS011;5203;48.976;8.306;2023-04-03T04:02:24;6.27;;;2.40;;
10315;SDS011;5203;48.976;8.306;2023-04-03T04:04:50;2.47;;;2.27;;
10315;SDS011;5203;48.976;8.306;2023-04-03T04:07:16;2.83;;;2.20;;
10315;SDS011;5203;48.976;8.306;2023-04-03T04:09:42;2.93;;;2.50;;
10315;SDS011;5203;48.976;8.306;2023-04-03T04:12:07;4.53;;;3.40;;
10315;SDS011;5203;48.976;8.306;2023-04-03T04:14:33;3.67;;;2.80;;
10315;SDS011;5203;48.976;8.306;2023-04-03T04:16:59;4.60;;;3.33;;
10315;SDS011;5203;48.976;8.306;2023-04-03T04:19:24;3.53;;;3.23;;
10315;SDS011;5203;48.976;8.306;2023-04-03T04:21:50;3.10;;;2.70;;
10315;SDS011;5203;48.976;8.306;2023-04-03T04:24:15;3.47;;;3.17;;
10315;SDS011;5203;48.976;8.306;2023-04-03T04:26:41;4.23;;;2.53;;
10315;SDS011;5203;48.976;8.306;2023-04-03T04:29:08;7.27;;;6.57;;
10315;SDS011;5203;48.976;8.306;2023-04-03T04:31:35;4.50;;;3.57;;
10315;SDS011;5203;48.976;8.306;2023-04-03T04:34:00;2.80;;;2.60;;
10315;SDS011;5203;48.976;8.306;2023-04-03T04:36:26;7.57;;;6.70;;
10315;SDS011;5203;48.976;8.306;2023-04-03T04:38:51;5.37;;;4.40;;
10315;SDS011;5203;48.976;8.306;2023-04-03T04:41:19;9.10;;;7.13;;
10315;SDS011;5203;48.976;8.306;2023-04-03T04:43:47;8.67;;;7.60;;
10315;SDS011;5203;48.976;8.306;2023-04-03T04:46:13;4.73;;;3.40;;
10315;SDS011;5203;48.976;8.306;2023-04-03T04:48:39;4.20;;;3.80;;
10315;SDS011;5203;48.976;8.306;2023-04-03T04:51:05;5.70;;;5.10;;
10315;SDS011;5203;48.976;8.306;2023-04-03T04:53:31;5.30;;;4.20;;
10315;SDS011;5203;48.976;8.306;2023-04-03T04:55:57;3.77;;;3.40;;
10315;SDS011;5203;48.976;8.306;2023-04-03T04:58:22;4.00;;;3.60;;
10315;SDS011;5203;48.976;8.306;2023-04-03T05:00:48;3.37;;;3.07;;
10315;SDS011;5203;48.976;8.306;2023-04-03T05:03:14;7.07;;;5.63;;
10315;SDS011;5203;48.976;8.306;2023-04-03T05:05:40;9.20;;;7.57;;
10315;SDS011;5203;48.976;8.306;2023-04-03T05:08:05;9.70;;;8.07;;
10315;SDS011;5203;48.976;8.306;2023-04-03T05:10:33;8.97;;;6.50;;
10315;SDS011;5203;48.976;8.306;2023-04-03T05:12:58;11.43;;;8.63;;
10315;SDS011;5203;48.976;8.306;2023-04-03T05:15:24;12.93;;;8.07;;
10315;SDS011;5203;48.976;8.306;2023-04-03T05:17:50;15.80;;;10.07;;
10315;SDS011;5203;48.976;8.306;2023-04-03T05:20:19;21.53;;;13.17;;
10315;SDS011;5203;48.976;8.306;2023-04-03T05:22:44;11.30;;;7.97;;
10315;SDS011;5203;48.976;8.306;2023-04-03T05:25:10;18.20;;;10.77;;
10315;SDS011;5203;48.976;8.306;2023-04-03T05:27:35;26.13;;;15.03;;
10315;SDS011;5203;48.976;8.306;2023-04-03T05:30:01;5.73;;;5.07;;
10315;SDS011;5203;48.976;8.306;2023-04-03T05:32:27;5.03;;;4.53;;
10315;SDS011;5203;48.976;8.306;2023-04-03T05:34:53;5.00;;;4.57;;
10315;SDS011;5203;48.976;8.306;2023-04-03T05:37:19;6.20;;;5.60;;
10315;SDS011;5203;48.976;8.306;2023-04-03T05:39:45;5.80;;;5.30;;
10315;SDS011;5203;48.976;8.306;2023-04-03T05:42:11;3.93;;;3.57;;
10315;SDS011;5203;48.976;8.306;2023-04-03T05:44:38;3.90;;;3.40;;
10315;SDS011;5203;48.976;8.306;2023-04-03T05:47:03;4.80;;;2.90;;
10315;SDS011;5203;48.976;8.306;2023-04-03T05:49:29;3.10;;;2.80;;
10315;SDS011;5203;48.976;8.306;2023-04-03T05:51:58;3.03;;;2.80;;
10315;SDS011;5203;48.976;8.306;2023-04-03T05:54:28;4.87;;;3.60;;
10315;SDS011;5203;48.976;8.306;2023-04-03T05:56:55;2.80;;;2.60;;
10315;SDS011;5203;48.976;8.306;2023-04-03T05:59:20;3.13;;;2.43;;
10315;SDS011;5203;48.976;8.306;2023-04-03T06:01:47;3.73;;;3.17;;
10315;SDS011;5203;48.976;8.306;2023-04-03T06:04:13;2.93;;;2.20;;
10315;SDS011;5203;48.976;8.306;2023-04-03T06:06:50;4.80;;;2.63;;
10315;SDS011;5203;48.976;8.306;2023-04-03T06:09:21;6.00;;;2.83;;
10315;SDS011;5203;48.976;8.306;2023-04-03T06:11:48;3.47;;;2.70;;
10315;SDS011;5203;48.976;8.306;2023-04-03T06:14:14;3.03;;;2.73;;
10315;SDS011;5203;48.976;8.306;2023-04-03T06:16:40;3.93;;;2.53;;
10315;SDS011;5203;48.976;8.306;2023-04-03T06:19:06;4.30;;;3.00;;
10315;SDS011;5203;48.976;8.306;2023-04-03T06:21:35;2.60;;;2.40;;
10315;SDS011;5203;48.976;8.306;2023-04-03T06:24:01;3.97;;;2.97;;
10315;SDS011;5203;48.976;8.306;2023-04-03T06:26:28;3.20;;;2.77;;
10315;SDS011;5203;48.976;8.306;2023-04-03T06:28:53;3.23;;;2.80;;
10315;SDS011;5203;48.976;8.306;2023-04-03T06:31:19;4.37;;;3.00;;
10315;SDS011;5203;48.976;8.306;2023-04-03T06:33:45;3.43;;;2.67;;
10315;SDS011;5203;48.976;8.306;2023-04-03T06:36:11;3.80;;;3.17;;
10315;SDS011;5203;48.976;8.306;2023-04-03T06:38:37;3.20;;;2.77;;
10315;SDS011;5203;48.976;8.306;2023-04-03T06:41:03;3.33;;;3.00;;
10315;SDS011;5203;48.976;8.306;2023-04-03T06:43:29;4.13;;;2.63;;
10315;SDS011;5203;48.976;8.306;2023-04-03T06:45:56;3.93;;;2.70;;
10315;SDS011;5203;48.976;8.306;2023-04-03T06:48:22;2.93;;;2.67;;
10315;SDS011;5203;48.976;8.306;2023-04-03T06:50:48;3.20;;;2.33;;
10315;SDS011;5203;48.976;8.306;2023-04-03T06:53:13;4.60;;;2.80;;
10315;SDS011;5203;48.976;8.306;2023-04-03T06:55:39;5.10;;;3.10;;
10315;SDS011;5203;48.976;8.306;2023-04-03T06:58:06;4.67;;;2.63;;
10315;SDS011;5203;48.976;8.306;2023-04-03T07:00:31;3.50;;;3.00;;
10315;SDS011;5203;48.976;8.306;2023-04-03T07:02:57;3.97;;;2.83;;
10315;SDS011;5203;48.976;8.306;2023-04-03T07:05:23;4.60;;;3.50;;
10315;SDS011;5203;48.976;8.306;2023-04-03T07:07:50;3.93;;;3.53;;
10315;SDS011;5203;48.976;8.306;2023-04-03T07:10:16;3.73;;;3.33;;
10315;SDS011;5203;48.976;8.306;2023-04-03T07:12:42;6.10;;;2.90;;
10315;SDS011;5203;48.976;8.306;2023-04-03T07:15:08;5.23;;;3.60;;
10315;SDS011;5203;48.976;8.306;2023-04-03T07:17:34;3.60;;;2.53;;
10315;SDS011;5203;48.976;8.306;2023-04-03T07:20:01;6.97;;;3.93;;
10315;SDS011;5203;48.976;8.306;2023-04-03T07:22:28;3.40;;;3.10;;
10315;SDS011;5203;48.976;8.306;2023-04-03T07:24:54;3.10;;;2.80;;
10315;SDS011;5203;48.976;8.306;2023-04-03T07:27:21;3.80;;;3.00;;
10315;SDS011;5203;48.976;8.306;2023-04-03T07:29:47;4.57;;;3.03;;
10315;SDS011;5203;48.976;8.306;2023-04-03T07:32:15;2.90;;;2.70;;
10315;SDS011;5203;48.976;8.306;2023-04-03T07:34:42;3.93;;;3.10;;
10315;SDS011;5203;48.976;8.306;2023-04-03T07:37:08;4.27;;;2.77;;
10315;SDS011;5203;48.976;8.306;2023-04-03T07:39:35;4.63;;;3.33;;
10315;SDS011;5203;48.976;8.306;2023-04-03T07:42:01;3.47;;;3.03;;
10315;SDS011;5203;48.976;8.306;2023-04-03T07:44:27;3.93;;;3.50;;
10315;SDS011;5203;48.976;8.306;2023-04-03T07:46:53;6.13;;;3.23;;
10315;SDS011;5203;48.976;8.306;2023-04-03T07:49:20;3.57;;;3.13;;
10315;SDS011;5203;48.976;8.306;2023-04-03T07:51:48;5.47;;;3.30;;
10315;SDS011;5203;48.976;8.306;2023-04-03T07:54:14;4.23;;;3.20;;
10315;SDS011;5203;48.976;8.306;2023-04-03T07:56:40;5.37;;;3.50;;
10315;SDS011;5203;48.976;8.306;2023-04-03T07:59:07;5.80;;;3.37;;
10315;SDS011;5203;48.976;8.306;2023-04-03T08:01:33;5.33;;;3.00;;
10315;SDS011;5203;48.976;8.306;2023-04-03T08:03:59;5.17;;;3.17;;
10315;SDS011;5203;48.976;8.306;2023-04-03T08:06:25;6.63;;;4.23;;
10315;SDS011;5203;48.976;8.306;2023-04-03T08:08:51;3.93;;;3.20;;
10315;SDS011;5203;48.976;8.306;2023-04-03T08:11:17;3.77;;;3.37;;
10315;SDS011;5203;48.976;8.306;2023-04-03T08:13:43;4.60;;;4.10;;
10315;SDS011;5203;48.976;8.306;2023-04-03T08:18:41;4.27;;;3.30;;
10315;SDS011;5203;48.976;8.306;2023-04-03T08:21:10;3.27;;;2.93;;
10315;SDS011;5203;48.976;8.306;2023-04-03T08:23:37;4.20;;;3.30;;
10315;SDS011;5203;48.976;8.306;2023-04-03T08:26:15;3.80;;;2.83;;
10315;SDS011;5203;48.976;8.306;2023-04-03T08:28:43;4.57;;;3.53;;
10315;SDS011;5203;48.976;8.306;2023-04-03T08:31:10;4.07;;;3.20;;
10315;SDS011;5203;48.976;8.306;2023-04-03T08:33:39;3.30;;;3.00;;
10315;SDS011;5203;48.976;8.306;2023-04-03T08:36:06;3.20;;;2.90;;
10315;SDS011;5203;48.976;8.306;2023-04-03T08:38:40;3.20;;;2.90;;
10315;SDS011;5203;48.976;8.306;2023-04-03T08:46:51;4.83;;;3.13;;
10315;SDS011;5203;48.976;8.306;2023-04-03T08:49:48;5.47;;;3.17;;
10315;SDS011;5203;48.976;8.306;2023-04-03T08:52:38;5.07;;;3.50;;
10315;SDS011;5203;48.976;8.306;2023-04-03T08:57:57;4.37;;;2.90;;
10315;SDS011;5203;48.976;8.306;2023-04-03T09:00:25;3.40;;;2.90;;
10315;SDS011;5203;48.976;8.306;2023-04-03T09:02:55;4.07;;;3.50;;
10315;SDS011;5203;48.976;8.306;2023-04-03T09:10:33;2.83;;;2.53;;
10315;SDS011;5203;48.976;8.306;2023-04-03T09:13:05;3.30;;;3.00;;
10315;SDS011;5203;48.976;8.306;2023-04-03T09:15:32;3.30;;;3.00;;
10315;SDS011;5203;48.976;8.306;2023-04-03T09:18:00;3.67;;;3.30;;
10315;SDS011;5203;48.976;8.306;2023-04-03T09:20:34;3.17;;;2.70;;
10315;SDS011;5203;48.976;8.306;2023-04-03T09:23:15;3.17;;;2.80;;
10315;SDS011;5203;48.976;8.306;2023-04-03T09:25:43;4.77;;;3.80;;
10315;SDS011;5203;48.976;8.306;2023-04-03T09:28:09;4.07;;;3.13;;
10315;SDS011;5203;48.976;8.306;2023-04-03T09:30:35;3.63;;;2.70;;
10315;SDS011;5203;48.976;8.306;2023-04-03T09:33:02;4.57;;;2.73;;
10315;SDS011;5203;48.976;8.306;2023-04-03T09:35:29;2.77;;;2.57;;
10315;SDS011;5203;48.976;8.306;2023-04-03T09:40:36;4.40;;;3.20;;
10315;SDS011;5203;48.976;8.306;2023-04-03T09:45:50;4.77;;;2.53;;
10315;SDS011;5203;48.976;8.306;2023-04-03T09:48:21;2.83;;;2.50;;
10315;SDS011;5203;48.976;8.306;2023-04-03T09:53:31;3.00;;;2.37;;
10315;SDS011;5203;48.976;8.306;2023-04-03T09:56:03;4.03;;;2.83;;
10315;SDS011;5203;48.976;8.306;2023-04-03T09:58:44;2.73;;;2.50;;
10315;SDS011;5203;48.976;8.306;2023-04-03T10:04:08;3.20;;;2.40;;
10315;SDS011;5203;48.976;8.306;2023-04-03T10:06:42;3.13;;;2.50;;
10315;SDS011;5203;48.976;8.306;2023-04-03T10:12:00;4.07;;;2.47;;
10315;SDS011;5203;48.976;8.306;2023-04-03T10:14:30;4.33;;;2.20;;
10315;SDS011;5203;48.976;8.306;2023-04-03T10:25:01;3.63;;;2.30;;
10315;SDS011;5203;48.976;8.306;2023-04-03T10:30:22;2.50;;;2.30;;
10315;SDS011;5203;48.976;8.306;2023-04-03T10:33:19;2.10;;;2.00;;
10315;SDS011;5203;48.976;8.306;2023-04-03T10:52:32;3.43;;;2.27;;
10315;SDS011;5203;48.976;8.306;2023-04-03T10:55:52;2.70;;;2.10;;
10315;SDS011;5203;48.976;8.306;2023-04-03T10:57:54;2.00;;;1.90;;
10315;SDS011;5203;48.976;8.306;2023-04-03T11:00:30;2.43;;;2.23;;
10315;SDS011;5203;48.976;8.306;2023-04-03T11:03:11;2.17;;;2.00;;
10315;SDS011;5203;48.976;8.306;2023-04-03T11:05:43;2.30;;;2.10;;
10315;SDS011;5203;48.976;8.306;2023-04-03T11:08:19;2.43;;;2.23;;
10315;SDS011;5203;48.976;8.306;2023-04-03T11:11:03;2.40;;;2.20;;
10315;SDS011;5203;48.976;8.306;2023-04-03T11:14:21;3.27;;;2.20;;
10315;SDS011;5203;48.976;8.306;2023-04-03T11:16:36;2.80;;;2.23;;
10315;SDS011;5203;48.976;8.306;2023-04-03T11:21:39;6.67;;;2.50;;
10315;SDS011;5203;48.976;8.306;2023-04-03T11:24:16;3.20;;;2.30;;
10315;SDS011;5203;48.976;8.306;2023-04-03T11:26:49;3.00;;;2.33;;
10315;SDS011;5203;48.976;8.306;2023-04-03T11:29:18;2.50;;;2.30;;
10315;SDS011;5203;48.976;8.306;2023-04-03T11:32:13;2.80;;;2.47;;
10315;SDS011;5203;48.976;8.306;2023-04-03T11:37:27;3.50;;;2.83;;
10315;SDS011;5203;48.976;8.306;2023-04-03T11:40:02;4.70;;;2.40;;
10315;SDS011;5203;48.976;8.306;2023-04-03T11:42:32;4.73;;;2.50;;
10315;SDS011;5203;48.976;8.306;2023-04-03T11:47:55;5.83;;;2.73;;
10315;SDS011;5203;48.976;8.306;2023-04-03T11:50:40;4.00;;;2.63;;
10315;SDS011;5203;48.976;8.306;2023-04-03T12:05:50;4.03;;;2.50;;
10315;SDS011;5203;48.976;8.306;2023-04-03T12:08:24;4.70;;;4.20;;
10315;SDS011;5203;48.976;8.306;2023-04-03T12:18:56;6.30;;;5.60;;
10315;SDS011;5203;48.976;8.306;2023-04-03T12:32:22;2.57;;;2.37;;
10315;SDS011;5203;48.976;8.306;2023-04-03T12:43:31;2.30;;;2.10;;
10315;SDS011;5203;48.976;8.306;2023-04-03T12:51:52;5.13;;;3.40;;
10315;SDS011;5203;48.976;8.306;2023-04-03T12:54:36;4.57;;;3.70;;
10315;SDS011;5203;48.976;8.306;2023-04-03T12:59:45;5.57;;;4.90;;
10315;SDS011;5203;48.976;8.306;2023-04-03T13:04:58;2.87;;;2.67;;
10315;SDS011;5203;48.976;8.306;2023-04-03T13:07:32;3.50;;;2.80;;
10315;SDS011;5203;48.976;8.306;2023-04-03T13:10:01;4.60;;;3.37;;
10315;SDS011;5203;48.976;8.306;2023-04-03T13:12:27;2.53;;;2.33;;
10315;SDS011;5203;48.976;8.306;2023-04-03T13:14:54;4.40;;;3.20;;
10315;SDS011;5203;48.976;8.306;2023-04-03T13:17:23;3.67;;;3.17;;
10315;SDS011;5203;48.976;8.306;2023-04-03T13:19:49;3.50;;;3.13;;
10315;SDS011;5203;48.976;8.306;2023-04-03T13:24:45;7.53;;;5.60;;
10315;SDS011;5203;48.976;8.306;2023-04-03T13:27:12;4.20;;;3.00;;
10315;SDS011;5203;48.976;8.306;2023-04-03T13:29:38;3.90;;;2.70;;
10315;SDS011;5203;48.976;8.306;2023-04-03T13:32:05;4.17;;;2.30;;
10315;SDS011;5203;48.976;8.306;2023-04-03T13:34:37;2.87;;;2.57;;
10315;SDS011;5203;48.976;8.306;2023-04-03T13:37:05;2.60;;;2.40;;
10315;SDS011;5203;48.976;8.306;2023-04-03T13:39:34;5.33;;;3.00;;
10315;SDS011;5203;48.976;8.306;2023-04-03T13:42:14;3.40;;;3.00;;
10315;SDS011;5203;48.976;8.306;2023-04-03T13:44:42;2.87;;;2.50;;
10315;SDS011;5203;48.976;8.306;2023-04-03T13:49:41;3.37;;;2.73;;
10315;SDS011;5203;48.976;8.306;2023-04-03T13:52:21;3.23;;;2.43;;
10315;SDS011;5203;48.976;8.306;2023-04-03T13:54:57;2.77;;;2.53;;
10315;SDS011;5203;48.976;8.306;2023-04-03T13:57:25;2.60;;;2.40;;
10315;SDS011;5203;48.976;8.306;2023-04-03T13:59:51;2.50;;;2.30;;
10315;SDS011;5203;48.976;8.306;2023-04-03T14:02:19;4.37;;;2.60;;
10315;SDS011;5203;48.976;8.306;2023-04-03T14:04:56;3.40;;;2.87;;
10315;SDS011;5203;48.976;8.306;2023-04-03T14:07:26;2.80;;;2.50;;
10315;SDS011;5203;48.976;8.306;2023-04-03T14:09:53;3.50;;;2.87;;
10315;SDS011;5203;48.976;8.306;2023-04-03T14:15:03;4.43;;;2.70;;
10315;SDS011;5203;48.976;8.306;2023-04-03T14:17:35;3.10;;;2.60;;
10315;SDS011;5203;48.976;8.306;2023-04-03T14:20:02;2.50;;;2.30;;
10315;SDS011;5203;48.976;8.306;2023-04-03T14:22:30;3.37;;;2.90;;
10315;SDS011;5203;48.976;8.306;2023-04-03T14:24:57;3.43;;;2.40;;
10315;SDS011;5203;48.976;8.306;2023-04-03T14:27:32;4.10;;;2.90;;
10315;SDS011;5203;48.976;8.306;2023-04-03T14:30:00;3.37;;;2.53;;
10315;SDS011;5203;48.976;8.306;2023-04-03T14:32:29;3.70;;;2.60;;
10315;SDS011;5203;48.976;8.306;2023-04-03T14:34:55;4.03;;;3.63;;
10315;SDS011;5203;48.976;8.306;2023-04-03T14:37:22;4.03;;;2.90;;
10315;SDS011;5203;48.976;8.306;2023-04-03T14:39:53;4.43;;;3.20;;
10315;SDS011;5203;48.976;8.306;2023-04-03T14:42:23;4.30;;;3.40;;
10315;SDS011;5203;48.976;8.306;2023-04-03T14:44:54;4.80;;;2.97;;
10315;SDS011;5203;48.976;8.306;2023-04-03T14:47:21;3.40;;;3.10;;
10315;SDS011;5203;48.976;8.306;2023-04-03T14:49:51;3.20;;;2.90;;
10315;SDS011;5203;48.976;8.306;2023-04-03T14:54:50;3.97;;;2.67;;
10315;SDS011;5203;48.976;8.306;2023-04-03T14:57:17;2.73;;;2.50;;
10315;SDS011;5203;48.976;8.306;2023-04-03T14:59:43;3.77;;;3.00;;
10315;SDS011;5203;48.976;8.306;2023-04-03T15:02:24;3.77;;;2.80;;
10315;SDS011;5203;48.976;8.306;2023-04-03T15:04:57;4.07;;;2.57;;
10315;SDS011;5203;48.976;8.306;2023-04-03T15:07:25;4.20;;;2.80;;
10315;SDS011;5203;48.976;8.306;2023-04-03T15:09:53;4.23;;;2.40;;
10315;SDS011;5203;48.976;8.306;2023-04-03T15:12:21;2.97;;;2.67;;
10315;SDS011;5203;48.976;8.306;2023-04-03T15:14:47;3.57;;;2.80;;
10315;SDS011;5203;48.976;8.306;2023-04-03T15:17:19;3.70;;;2.90;;
10315;SDS011;5203;48.976;8.306;2023-04-03T15:19:47;3.03;;;2.83;;
10315;SDS011;5203;48.976;8.306;2023-04-03T15:22:13;2.63;;;2.43;;
10315;SDS011;5203;48.976;8.306;2023-04-03T15:24:40;3.20;;;2.73;;
10315;SDS011;5203;48.976;8.306;2023-04-03T15:27:07;3.20;;;2.80;;
10315;SDS011;5203;48.976;8.306;2023-04-03T15:29:34;4.27;;;2.87;;
10315;SDS011;5203;48.976;8.306;2023-04-03T15:31:59;3.23;;;2.93;;
10315;SDS011;5203;48.976;8.306;2023-04-03T15:34:25;3.20;;;2.90;;
10315;SDS011;5203;48.976;8.306;2023-04-03T15:36:52;3.97;;;3.50;;
10315;SDS011;5203;48.976;8.306;2023-04-03T15:39:18;3.60;;;3.30;;
10315;SDS011;5203;48.976;8.306;2023-04-03T15:41:44;3.10;;;2.87;;
10315;SDS011;5203;48.976;8.306;2023-04-03T15:44:10;3.40;;;3.07;;
10315;SDS011;5203;48.976;8.306;2023-04-03T15:46:37;3.13;;;2.83;;
10315;SDS011;5203;48.976;8.306;2023-04-03T15:49:03;2.87;;;2.67;;
10315;SDS011;5203;48.976;8.306;2023-04-03T15:51:30;2.60;;;2.40;;
10315;SDS011;5203;48.976;8.306;2023-04-03T15:53:55;3.53;;;2.50;;
10315;SDS011;5203;48.976;8.306;2023-04-03T15:56:21;3.63;;;2.80;;
10315;SDS011;5203;48.976;8.306;2023-04-03T15:58:46;4.70;;;3.40;;
10315;SDS011;5203;48.976;8.306;2023-04-03T16:01:12;3.57;;;3.03;;
10315;SDS011;5203;48.976;8.306;2023-04-03T16:03:39;3.77;;;3.13;;
10315;SDS011;5203;48.976;8.306;2023-04-03T16:06:10;3.30;;;2.83;;
10315;SDS011;5203;48.976;8.306;2023-04-03T16:08:37;3.70;;;3.33;;
10315;SDS011;5203;48.976;8.306;2023-04-03T16:11:03;3.60;;;2.83;;
10315;SDS011;5203;48.976;8.306;2023-04-03T16:13:29;3.07;;;2.80;;
10315;SDS011;5203;48.976;8.306;2023-04-03T16:15:55;3.73;;;3.47;;
10315;SDS011;5203;48.976;8.306;2023-04-03T16:18:21;4.40;;;3.10;;
10315;SDS011;5203;48.976;8.306;2023-04-03T16:20:47;3.43;;;3.03;;
10315;SDS011;5203;48.976;8.306;2023-04-03T16:23:13;3.50;;;3.20;;
10315;SDS011;5203;48.976;8.306;2023-04-03T16:25:39;4.00;;;2.83;;
10315;SDS011;5203;48.976;8.306;2023-04-03T16:28:05;4.10;;;3.23;;
10315;SDS011;5203;48.976;8.306;2023-04-03T16:30:31;2.93;;;2.63;;
10315;SDS011;5203;48.976;8.306;2023-04-03T16:32:57;5.17;;;3.03;;
10315;SDS011;5203;48.976;8.306;2023-04-03T16:35:23;3.23;;;3.00;;
10315;SDS011;5203;48.976;8.306;2023-04-03T16:37:49;4.27;;;3.17;;
10315;SDS011;5203;48.976;8.306;2023-04-03T16:40:14;4.30;;;3.40;;
10315;SDS011;5203;48.976;8.306;2023-04-03T16:42:40;3.87;;;3.57;;
10315;SDS011;5203;48.976;8.306;2023-04-03T16:45:06;3.70;;;3.13;;
10315;SDS011;5203;48.976;8.306;2023-04-03T16:47:32;4.10;;;3.50;;
10315;SDS011;5203;48.976;8.306;2023-04-03T16:49:58;5.63;;;3.20;;
10315;SDS011;5203;48.976;8.306;2023-04-03T16:52:24;3.10;;;2.90;;
10315;SDS011;5203;48.976;8.306;2023-04-03T16:54:49;3.33;;;2.83;;
10315;SDS011;5203;48.976;8.306;2023-04-03T16:57:20;3.43;;;3.13;;
10315;SDS011;5203;48.976;8.306;2023-04-03T16:59:46;3.30;;;3.00;;
10315;SDS011;5203;48.976;8.306;2023-04-03T17:02:11;3.37;;;3.00;;
10315;SDS011;5203;48.976;8.306;2023-04-03T17:04:37;3.13;;;2.93;;
10315;SDS011;5203;48.976;8.306;2023-04-03T17:07:03;3.63;;;3.30;;
10315;SDS011;5203;48.976;8.306;2023-04-03T17:09:31;4.03;;;3.40;;
10315;SDS011;5203;48.976;8.306;2023-04-03T17:11:57;3.30;;;3.00;;
10315;SDS011;5203;48.976;8.306;2023-04-03T17:14:23;3.63;;;2.93;;
10315;SDS011;5203;48.976;8.306;2023-04-03T17:16:49;2.80;;;2.60;;
10315;SDS011;5203;48.976;8.306;2023-04-03T17:19:15;4.27;;;3.50;;
10315;SDS011;5203;48.976;8.306;2023-04-03T17:21:42;4.30;;;3.30;;
10315;SDS011;5203;48.976;8.306;2023-04-03T17:24:08;3.97;;;2.50;;
10315;SDS011;5203;48.976;8.306;2023-04-03T17:26:37;3.17;;;2.87;;